Bogota, Colombia
Current Conditions -  °F | °C
As of 8:00 PM on Monday 22 Dec 2014 (Local Time) from SKBO Reporting Station
Few Clouds Few Clouds  
Wind Chill: 55°   Ceiling: Unl
Heat Index: 55°   Visibility: 6mi
Dew Point: 43°   Wind: 5mph
Humidity: 63%   Direction: 110°ESE
Pressure: 30.29"   Gusts: NA
Location:  4.63°N, 74.09°W
Report Text: SKBO 230100Z 11004KT 9999 FEW020 13/06 A3029
Loading
Personal Weather Stations






























Interactive Weather Map New forecast layout! Learn more

10-Day Weather Forecast

Advertisements
Track Severe Weather on mobile